sensor_id;sensor_type;location;lat;lon;timestamp;temperature;humidity
17236;DHT22;8734;59.272;17.780;2023-04-25T00:01:55;4.70;99.90
17236;DHT22;8734;59.272;17.780;2023-04-25T00:04:24;4.70;99.90
17236;DHT22;8734;59.272;17.780;2023-04-25T00:06:56;4.70;99.90
17236;DHT22;8734;59.272;17.780;2023-04-25T00:09:24;4.60;99.90
17236;DHT22;8734;59.272;17.780;2023-04-25T00:11:53;4.60;99.90
17236;DHT22;8734;59.272;17.780;2023-04-25T00:14:21;4.60;99.90
17236;DHT22;8734;59.272;17.780;2023-04-25T00:16:49;4.60;99.90
17236;DHT22;8734;59.272;17.780;2023-04-25T00:19:18;4.60;99.90
17236;DHT22;8734;59.272;17.780;2023-04-25T00:21:47;4.60;99.90
17236;DHT22;8734;59.272;17.780;2023-04-25T00:24:17;4.60;99.90
17236;DHT22;8734;59.272;17.780;2023-04-25T00:26:45;4.60;99.90
17236;DHT22;8734;59.272;17.780;2023-04-25T00:29:14;4.50;99.90
17236;DHT22;8734;59.272;17.780;2023-04-25T00:31:42;4.50;99.90
17236;DHT22;8734;59.272;17.780;2023-04-25T00:34:11;4.50;99.90
17236;DHT22;8734;59.272;17.780;2023-04-25T00:36:40;4.50;99.90
17236;DHT22;8734;59.272;17.780;2023-04-25T00:39:08;4.50;99.90
17236;DHT22;8734;59.272;17.780;2023-04-25T00:41:38;4.50;99.90
17236;DHT22;8734;59.272;17.780;2023-04-25T00:44:08;4.50;99.90
17236;DHT22;8734;59.272;17.780;2023-04-25T00:46:38;4.40;99.90
17236;DHT22;8734;59.272;17.780;2023-04-25T00:49:07;4.50;99.90
17236;DHT22;8734;59.272;17.780;2023-04-25T00:51:36;4.40;99.90
17236;DHT22;8734;59.272;17.780;2023-04-25T00:54:04;4.40;99.90
17236;DHT22;8734;59.272;17.780;2023-04-25T00:56:32;4.40;99.90
17236;DHT22;8734;59.272;17.780;2023-04-25T00:59:03;4.30;99.90
17236;DHT22;8734;59.272;17.780;2023-04-25T01:01:32;4.30;99.90
17236;DHT22;8734;59.272;17.780;2023-04-25T01:04:01;4.30;99.90
17236;DHT22;8734;59.272;17.780;2023-04-25T01:06:30;4.30;99.90
17236;DHT22;8734;59.272;17.780;2023-04-25T01:08:59;4.30;99.90
17236;DHT22;8734;59.272;17.780;2023-04-25T01:11:28;4.20;99.90
17236;DHT22;8734;59.272;17.780;2023-04-25T01:13:57;4.20;99.90
17236;DHT22;8734;59.272;17.780;2023-04-25T01:16:26;4.20;99.90
17236;DHT22;8734;59.272;17.780;2023-04-25T01:18:55;4.20;99.90
17236;DHT22;8734;59.272;17.780;2023-04-25T01:21:25;4.30;99.90
17236;DHT22;8734;59.272;17.780;2023-04-25T01:23:57;4.20;99.90
17236;DHT22;8734;59.272;17.780;2023-04-25T01:26:26;4.30;99.90
17236;DHT22;8734;59.272;17.780;2023-04-25T01:28:54;4.30;99.90
17236;DHT22;8734;59.272;17.780;2023-04-25T01:31:23;4.20;99.90
17236;DHT22;8734;59.272;17.780;2023-04-25T01:33:52;4.20;99.90
17236;DHT22;8734;59.272;17.780;2023-04-25T01:36:20;4.20;99.90
17236;DHT22;8734;59.272;17.780;2023-04-25T01:38:51;4.20;99.90
17236;DHT22;8734;59.272;17.780;2023-04-25T01:41:19;4.20;99.90
17236;DHT22;8734;59.272;17.780;2023-04-25T01:43:50;4.20;99.90
17236;DHT22;8734;59.272;17.780;2023-04-25T01:46:19;4.20;99.90
17236;DHT22;8734;59.272;17.780;2023-04-25T01:48:47;4.20;99.90
17236;DHT22;8734;59.272;17.780;2023-04-25T01:51:16;4.20;99.90
17236;DHT22;8734;59.272;17.780;2023-04-25T01:53:45;4.10;99.90
17236;DHT22;8734;59.272;17.780;2023-04-25T01:56:15;4.10;99.90
17236;DHT22;8734;59.272;17.780;2023-04-25T01:58:43;4.10;99.90
17236;DHT22;8734;59.272;17.780;2023-04-25T02:01:12;4.10;99.90
17236;DHT22;8734;59.272;17.780;2023-04-25T02:03:40;4.10;99.90
17236;DHT22;8734;59.272;17.780;2023-04-25T02:06:09;4.00;99.90
17236;DHT22;8734;59.272;17.780;2023-04-25T02:08:37;4.10;99.90
17236;DHT22;8734;59.272;17.780;2023-04-25T02:11:05;4.10;99.90
17236;DHT22;8734;59.272;17.780;2023-04-25T02:13:35;4.10;99.90
17236;DHT22;8734;59.272;17.780;2023-04-25T02:16:04;4.10;99.90
17236;DHT22;8734;59.272;17.780;2023-04-25T02:18:33;4.10;99.90
17236;DHT22;8734;59.272;17.780;2023-04-25T02:21:04;4.10;99.90
17236;DHT22;8734;59.272;17.780;2023-04-25T02:23:32;4.10;99.90
17236;DHT22;8734;59.272;17.780;2023-04-25T02:26:01;4.00;99.90
17236;DHT22;8734;59.272;17.780;2023-04-25T02:28:29;4.10;99.90
17236;DHT22;8734;59.272;17.780;2023-04-25T02:31:00;4.00;99.90
17236;DHT22;8734;59.272;17.780;2023-04-25T02:33:28;4.10;99.90
17236;DHT22;8734;59.272;17.780;2023-04-25T02:35:56;4.00;99.90
17236;DHT22;8734;59.272;17.780;2023-04-25T02:38:24;4.00;99.90
17236;DHT22;8734;59.272;17.780;2023-04-25T02:40:52;4.00;99.90
17236;DHT22;8734;59.272;17.780;2023-04-25T02:43:21;4.00;99.90
17236;DHT22;8734;59.272;17.780;2023-04-25T02:45:49;4.00;99.90
17236;DHT22;8734;59.272;17.780;2023-04-25T02:48:19;4.00;99.90
17236;DHT22;8734;59.272;17.780;2023-04-25T02:50:47;4.00;99.90
17236;DHT22;8734;59.272;17.780;2023-04-25T02:53:15;3.90;99.90
17236;DHT22;8734;59.272;17.780;2023-04-25T02:55:44;3.90;99.90
17236;DHT22;8734;59.272;17.780;2023-04-25T02:58:12;3.90;99.90
17236;DHT22;8734;59.272;17.780;2023-04-25T03:00:40;4.00;99.90
17236;DHT22;8734;59.272;17.780;2023-04-25T03:03:09;4.00;99.90
17236;DHT22;8734;59.272;17.780;2023-04-25T03:05:39;4.00;99.90
17236;DHT22;8734;59.272;17.780;2023-04-25T03:08:07;3.90;99.90
17236;DHT22;8734;59.272;17.780;2023-04-25T03:10:36;3.90;99.90
17236;DHT22;8734;59.272;17.780;2023-04-25T03:13:04;4.00;99.90
17236;DHT22;8734;59.272;17.780;2023-04-25T03:15:32;3.90;99.90
17236;DHT22;8734;59.272;17.780;2023-04-25T03:18:01;3.90;99.90
17236;DHT22;8734;59.272;17.780;2023-04-25T03:20:31;3.90;99.90
17236;DHT22;8734;59.272;17.780;2023-04-25T03:23:01;4.00;99.90
17236;DHT22;8734;59.272;17.780;2023-04-25T03:25:29;4.00;99.90
17236;DHT22;8734;59.272;17.780;2023-04-25T03:27:58;4.00;99.90
17236;DHT22;8734;59.272;17.780;2023-04-25T03:30:26;4.00;99.90
17236;DHT22;8734;59.272;17.780;2023-04-25T03:32:55;4.10;99.90
17236;DHT22;8734;59.272;17.780;2023-04-25T03:35:23;4.10;99.90
17236;DHT22;8734;59.272;17.780;2023-04-25T03:37:51;4.10;99.90
17236;DHT22;8734;59.272;17.780;2023-04-25T03:40:22;4.10;99.90
17236;DHT22;8734;59.272;17.780;2023-04-25T03:42:50;4.10;99.90
17236;DHT22;8734;59.272;17.780;2023-04-25T03:45:18;4.10;99.90
17236;DHT22;8734;59.272;17.780;2023-04-25T03:47:48;4.10;99.90
17236;DHT22;8734;59.272;17.780;2023-04-25T03:50:16;4.10;99.90
17236;DHT22;8734;59.272;17.780;2023-04-25T03:52:45;4.10;99.90
17236;DHT22;8734;59.272;17.780;2023-04-25T03:55:13;4.10;99.90
17236;DHT22;8734;59.272;17.780;2023-04-25T03:57:43;4.10;99.90
17236;DHT22;8734;59.272;17.780;2023-04-25T04:00:12;4.10;99.90
17236;DHT22;8734;59.272;17.780;2023-04-25T04:02:41;4.10;99.90
17236;DHT22;8734;59.272;17.780;2023-04-25T04:05:11;4.10;99.90
17236;DHT22;8734;59.272;17.780;2023-04-25T04:07:39;4.10;99.90
17236;DHT22;8734;59.272;17.780;2023-04-25T04:10:10;4.10;99.90
17236;DHT22;8734;59.272;17.780;2023-04-25T04:12:38;4.10;99.90
17236;DHT22;8734;59.272;17.780;2023-04-25T04:15:09;4.00;99.90
17236;DHT22;8734;59.272;17.780;2023-04-25T04:17:39;4.10;99.90
17236;DHT22;8734;59.272;17.780;2023-04-25T04:20:08;4.10;99.90
17236;DHT22;8734;59.272;17.780;2023-04-25T04:22:37;4.00;99.90
17236;DHT22;8734;59.272;17.780;2023-04-25T04:25:06;4.10;99.90
17236;DHT22;8734;59.272;17.780;2023-04-25T04:27:35;4.10;99.90
17236;DHT22;8734;59.272;17.780;2023-04-25T04:30:05;4.10;99.90
17236;DHT22;8734;59.272;17.780;2023-04-25T04:32:34;4.00;99.90
17236;DHT22;8734;59.272;17.780;2023-04-25T04:35:05;4.10;99.90
17236;DHT22;8734;59.272;17.780;2023-04-25T04:37:34;4.10;99.90
17236;DHT22;8734;59.272;17.780;2023-04-25T04:40:04;4.10;99.90
17236;DHT22;8734;59.272;17.780;2023-04-25T04:42:33;4.10;99.90
17236;DHT22;8734;59.272;17.780;2023-04-25T04:45:03;4.10;99.90
17236;DHT22;8734;59.272;17.780;2023-04-25T04:47:31;4.10;99.90
17236;DHT22;8734;59.272;17.780;2023-04-25T04:50:03;4.10;99.90
17236;DHT22;8734;59.272;17.780;2023-04-25T04:52:31;4.10;99.90
17236;DHT22;8734;59.272;17.780;2023-04-25T04:54:59;4.10;99.90
17236;DHT22;8734;59.272;17.780;2023-04-25T04:57:28;4.10;99.90
17236;DHT22;8734;59.272;17.780;2023-04-25T04:59:58;4.20;99.90
17236;DHT22;8734;59.272;17.780;2023-04-25T05:02:26;4.10;99.90
17236;DHT22;8734;59.272;17.780;2023-04-25T05:04:56;4.10;99.90
17236;DHT22;8734;59.272;17.780;2023-04-25T05:07:26;4.20;99.90
17236;DHT22;8734;59.272;17.780;2023-04-25T05:09:54;4.10;99.90
17236;DHT22;8734;59.272;17.780;2023-04-25T05:12:22;4.10;99.90
17236;DHT22;8734;59.272;17.780;2023-04-25T05:14:50;4.10;99.90
17236;DHT22;8734;59.272;17.780;2023-04-25T05:17:19;4.10;99.90
17236;DHT22;8734;59.272;17.780;2023-04-25T05:19:47;4.10;99.90
17236;DHT22;8734;59.272;17.780;2023-04-25T05:22:16;4.10;99.90
17236;DHT22;8734;59.272;17.780;2023-04-25T05:24:46;4.10;99.90
17236;DHT22;8734;59.272;17.780;2023-04-25T05:27:16;4.10;99.90
17236;DHT22;8734;59.272;17.780;2023-04-25T05:29:44;4.20;99.90
17236;DHT22;8734;59.272;17.780;2023-04-25T05:32:13;4.20;99.90
17236;DHT22;8734;59.272;17.780;2023-04-25T05:34:42;4.20;99.90
17236;DHT22;8734;59.272;17.780;2023-04-25T05:37:10;4.20;99.90
17236;DHT22;8734;59.272;17.780;2023-04-25T05:39:39;4.20;99.90
17236;DHT22;8734;59.272;17.780;2023-04-25T05:42:08;4.20;99.90
17236;DHT22;8734;59.272;17.780;2023-04-25T05:44:37;4.20;99.90
17236;DHT22;8734;59.272;17.780;2023-04-25T05:47:05;4.30;99.90
17236;DHT22;8734;59.272;17.780;2023-04-25T05:49:34;4.30;99.90
17236;DHT22;8734;59.272;17.780;2023-04-25T05:52:02;4.40;99.90
17236;DHT22;8734;59.272;17.780;2023-04-25T05:54:31;4.40;99.90
17236;DHT22;8734;59.272;17.780;2023-04-25T05:56:59;4.40;99.90
17236;DHT22;8734;59.272;17.780;2023-04-25T05:59:28;4.40;99.90
17236;DHT22;8734;59.272;17.780;2023-04-25T06:01:57;4.50;99.90
17236;DHT22;8734;59.272;17.780;2023-04-25T06:04:26;4.50;99.90
17236;DHT22;8734;59.272;17.780;2023-04-25T06:06:55;4.60;99.90
17236;DHT22;8734;59.272;17.780;2023-04-25T06:09:23;4.60;99.90
17236;DHT22;8734;59.272;17.780;2023-04-25T06:11:52;4.70;99.90
17236;DHT22;8734;59.272;17.780;2023-04-25T06:14:20;4.80;99.90
17236;DHT22;8734;59.272;17.780;2023-04-25T06:16:49;4.80;99.90
17236;DHT22;8734;59.272;17.780;2023-04-25T06:19:18;4.70;99.90
17236;DHT22;8734;59.272;17.780;2023-04-25T06:21:46;4.80;99.90
17236;DHT22;8734;59.272;17.780;2023-04-25T06:24:14;4.70;99.90
17236;DHT22;8734;59.272;17.780;2023-04-25T06:26:43;4.80;99.90
17236;DHT22;8734;59.272;17.780;2023-04-25T06:29:11;4.80;99.90
17236;DHT22;8734;59.272;17.780;2023-04-25T06:31:40;4.80;99.90
17236;DHT22;8734;59.272;17.780;2023-04-25T06:34:10;4.80;99.90
17236;DHT22;8734;59.272;17.780;2023-04-25T06:36:38;4.90;99.90
17236;DHT22;8734;59.272;17.780;2023-04-25T06:39:08;4.90;99.90
17236;DHT22;8734;59.272;17.780;2023-04-25T06:41:36;4.90;99.90
17236;DHT22;8734;59.272;17.780;2023-04-25T06:44:04;4.90;99.90
17236;DHT22;8734;59.272;17.780;2023-04-25T06:46:33;4.90;99.90
17236;DHT22;8734;59.272;17.780;2023-04-25T06:49:01;4.90;99.90
17236;DHT22;8734;59.272;17.780;2023-04-25T06:51:31;4.90;99.90
17236;DHT22;8734;59.272;17.780;2023-04-25T06:53:59;5.00;99.90
17236;DHT22;8734;59.272;17.780;2023-04-25T06:56:28;5.00;99.90
17236;DHT22;8734;59.272;17.780;2023-04-25T06:58:57;5.00;99.90
17236;DHT22;8734;59.272;17.780;2023-04-25T07:01:27;5.00;99.90
17236;DHT22;8734;59.272;17.780;2023-04-25T07:03:56;5.10;99.90
17236;DHT22;8734;59.272;17.780;2023-04-25T07:06:25;5.20;99.90
17236;DHT22;8734;59.272;17.780;2023-04-25T07:08:56;5.20;99.90
17236;DHT22;8734;59.272;17.780;2023-04-25T07:11:25;5.30;99.90
17236;DHT22;8734;59.272;17.780;2023-04-25T07:13:53;5.30;99.90
17236;DHT22;8734;59.272;17.780;2023-04-25T07:16:22;5.40;99.90
17236;DHT22;8734;59.272;17.780;2023-04-25T07:18:50;5.40;99.90
17236;DHT22;8734;59.272;17.780;2023-04-25T07:21:18;5.40;99.90
17236;DHT22;8734;59.272;17.780;2023-04-25T07:23:47;5.40;99.90
17236;DHT22;8734;59.272;17.780;2023-04-25T07:26:17;5.40;99.90
17236;DHT22;8734;59.272;17.780;2023-04-25T07:28:45;5.40;99.90
17236;DHT22;8734;59.272;17.780;2023-04-25T07:31:18;5.50;99.90
17236;DHT22;8734;59.272;17.780;2023-04-25T07:33:47;5.50;99.90
17236;DHT22;8734;59.272;17.780;2023-04-25T07:36:15;5.50;99.90
17236;DHT22;8734;59.272;17.780;2023-04-25T07:38:44;5.50;99.90
17236;DHT22;8734;59.272;17.780;2023-04-25T07:41:12;5.70;99.90
17236;DHT22;8734;59.272;17.780;2023-04-25T07:43:42;5.60;99.90
17236;DHT22;8734;59.272;17.780;2023-04-25T07:46:10;5.70;99.90
17236;DHT22;8734;59.272;17.780;2023-04-25T07:48:38;5.80;99.90
17236;DHT22;8734;59.272;17.780;2023-04-25T07:51:06;5.90;99.90
17236;DHT22;8734;59.272;17.780;2023-04-25T07:53:35;5.90;99.90
17236;DHT22;8734;59.272;17.780;2023-04-25T07:56:05;6.00;99.90
17236;DHT22;8734;59.272;17.780;2023-04-25T07:58:33;6.00;99.90
17236;DHT22;8734;59.272;17.780;2023-04-25T08:01:03;6.00;99.90
17236;DHT22;8734;59.272;17.780;2023-04-25T08:03:31;6.00;99.90
17236;DHT22;8734;59.272;17.780;2023-04-25T08:06:00;6.00;99.90
17236;DHT22;8734;59.272;17.780;2023-04-25T08:08:33;6.10;99.90
17236;DHT22;8734;59.272;17.780;2023-04-25T08:11:02;6.20;99.90
17236;DHT22;8734;59.272;17.780;2023-04-25T08:13:30;6.30;99.90
17236;DHT22;8734;59.272;17.780;2023-04-25T08:15:58;6.30;99.90
17236;DHT22;8734;59.272;17.780;2023-04-25T08:18:28;6.40;99.90
17236;DHT22;8734;59.272;17.780;2023-04-25T08:20:57;6.40;99.90
17236;DHT22;8734;59.272;17.780;2023-04-25T08:23:26;6.60;99.90
17236;DHT22;8734;59.272;17.780;2023-04-25T08:25:54;6.60;99.90
17236;DHT22;8734;59.272;17.780;2023-04-25T08:28:23;6.60;99.90
17236;DHT22;8734;59.272;17.780;2023-04-25T08:30:51;6.70;99.90
17236;DHT22;8734;59.272;17.780;2023-04-25T08:33:20;6.70;99.90
17236;DHT22;8734;59.272;17.780;2023-04-25T08:35:50;6.80;99.90
17236;DHT22;8734;59.272;17.780;2023-04-25T08:38:18;6.80;99.90
17236;DHT22;8734;59.272;17.780;2023-04-25T08:40:49;6.90;99.90
17236;DHT22;8734;59.272;17.780;2023-04-25T08:43:19;6.90;99.90
17236;DHT22;8734;59.272;17.780;2023-04-25T08:45:48;6.90;99.90
17236;DHT22;8734;59.272;17.780;2023-04-25T08:48:17;7.00;99.90
17236;DHT22;8734;59.272;17.780;2023-04-25T08:50:51;7.10;99.90
17236;DHT22;8734;59.272;17.780;2023-04-25T08:53:25;7.10;99.90
17236;DHT22;8734;59.272;17.780;2023-04-25T08:55:56;7.10;99.90
17236;DHT22;8734;59.272;17.780;2023-04-25T08:58:24;7.10;99.90
17236;DHT22;8734;59.272;17.780;2023-04-25T09:00:52;7.00;99.90
17236;DHT22;8734;59.272;17.780;2023-04-25T09:03:22;7.00;99.90
17236;DHT22;8734;59.272;17.780;2023-04-25T09:05:52;7.00;99.90
17236;DHT22;8734;59.272;17.780;2023-04-25T09:08:21;6.90;99.90
17236;DHT22;8734;59.272;17.780;2023-04-25T09:10:50;6.90;99.90
17236;DHT22;8734;59.272;17.780;2023-04-25T09:13:25;6.90;99.90
17236;DHT22;8734;59.272;17.780;2023-04-25T09:15:56;7.00;99.90
17236;DHT22;8734;59.272;17.780;2023-04-25T09:18:25;7.00;99.90
17236;DHT22;8734;59.272;17.780;2023-04-25T09:21:05;7.00;99.90
17236;DHT22;8734;59.272;17.780;2023-04-25T09:23:41;7.20;99.90
17236;DHT22;8734;59.272;17.780;2023-04-25T09:26:10;7.30;99.90
17236;DHT22;8734;59.272;17.780;2023-04-25T09:28:41;7.30;99.90
17236;DHT22;8734;59.272;17.780;2023-04-25T09:31:11;7.30;99.90
17236;DHT22;8734;59.272;17.780;2023-04-25T09:33:40;7.40;99.90
17236;DHT22;8734;59.272;17.780;2023-04-25T09:36:10;7.50;99.90
17236;DHT22;8734;59.272;17.780;2023-04-25T09:38:44;7.50;99.90
17236;DHT22;8734;59.272;17.780;2023-04-25T09:41:12;7.50;99.90
17236;DHT22;8734;59.272;17.780;2023-04-25T09:43:45;7.60;99.90
17236;DHT22;8734;59.272;17.780;2023-04-25T09:46:14;7.70;99.90
17236;DHT22;8734;59.272;17.780;2023-04-25T09:48:48;7.70;99.90
17236;DHT22;8734;59.272;17.780;2023-04-25T09:51:19;7.80;99.90
17236;DHT22;8734;59.272;17.780;2023-04-25T09:53:47;7.80;99.90
17236;DHT22;8734;59.272;17.780;2023-04-25T09:56:19;7.90;99.90
17236;DHT22;8734;59.272;17.780;2023-04-25T09:58:49;7.90;99.90
17236;DHT22;8734;59.272;17.780;2023-04-25T10:01:18;8.00;99.90
17236;DHT22;8734;59.272;17.780;2023-04-25T10:03:49;7.90;99.90
17236;DHT22;8734;59.272;17.780;2023-04-25T10:06:21;7.80;99.90
17236;DHT22;8734;59.272;17.780;2023-04-25T10:08:51;7.70;99.90
17236;DHT22;8734;59.272;17.780;2023-04-25T10:11:25;7.70;99.90
17236;DHT22;8734;59.272;17.780;2023-04-25T10:13:54;7.80;99.90
17236;DHT22;8734;59.272;17.780;2023-04-25T10:16:24;7.80;99.90
17236;DHT22;8734;59.272;17.780;2023-04-25T10:18:53;7.90;99.90
17236;DHT22;8734;59.272;17.780;2023-04-25T10:21:24;8.00;99.90
17236;DHT22;8734;59.272;17.780;2023-04-25T10:23:55;8.00;99.90
17236;DHT22;8734;59.272;17.780;2023-04-25T10:26:24;8.10;99.90
17236;DHT22;8734;59.272;17.780;2023-04-25T10:28:57;8.10;99.90
17236;DHT22;8734;59.272;17.780;2023-04-25T10:31:27;8.30;99.90
17236;DHT22;8734;59.272;17.780;2023-04-25T10:33:58;8.30;99.90
17236;DHT22;8734;59.272;17.780;2023-04-25T10:36:32;8.40;99.90
17236;DHT22;8734;59.272;17.780;2023-04-25T10:39:04;8.40;99.90
17236;DHT22;8734;59.272;17.780;2023-04-25T10:41:46;8.30;99.90
17236;DHT22;8734;59.272;17.780;2023-04-25T10:44:15;8.30;99.90
17236;DHT22;8734;59.272;17.780;2023-04-25T10:46:44;8.60;99.90
17236;DHT22;8734;59.272;17.780;2023-04-25T10:49:29;8.60;99.90
17236;DHT22;8734;59.272;17.780;2023-04-25T10:52:19;8.70;99.90
17236;DHT22;8734;59.272;17.780;2023-04-25T10:54:54;8.90;99.90
17236;DHT22;8734;59.272;17.780;2023-04-25T10:57:30;8.90;99.90
17236;DHT22;8734;59.272;17.780;2023-04-25T11:00:06;9.00;99.90
17236;DHT22;8734;59.272;17.780;2023-04-25T11:02:44;9.20;99.90
17236;DHT22;8734;59.272;17.780;2023-04-25T11:05:23;9.30;99.90
17236;DHT22;8734;59.272;17.780;2023-04-25T11:07:55;9.30;99.90
17236;DHT22;8734;59.272;17.780;2023-04-25T11:10:34;9.30;99.90
17236;DHT22;8734;59.272;17.780;2023-04-25T11:13:03;9.10;99.90
17236;DHT22;8734;59.272;17.780;2023-04-25T11:15:32;8.90;99.90
17236;DHT22;8734;59.272;17.780;2023-04-25T11:18:00;9.00;99.90
17236;DHT22;8734;59.272;17.780;2023-04-25T11:20:29;8.80;99.90
17236;DHT22;8734;59.272;17.780;2023-04-25T11:22:59;8.80;99.90
17236;DHT22;8734;59.272;17.780;2023-04-25T11:25:32;8.80;99.90
17236;DHT22;8734;59.272;17.780;2023-04-25T11:28:04;8.80;99.90
17236;DHT22;8734;59.272;17.780;2023-04-25T11:30:32;8.70;99.90
17236;DHT22;8734;59.272;17.780;2023-04-25T11:33:01;8.90;99.90
17236;DHT22;8734;59.272;17.780;2023-04-25T11:35:31;9.00;99.90
17236;DHT22;8734;59.272;17.780;2023-04-25T11:38:02;8.90;99.90
17236;DHT22;8734;59.272;17.780;2023-04-25T11:40:30;8.80;99.90
17236;DHT22;8734;59.272;17.780;2023-04-25T11:43:00;8.70;99.90
17236;DHT22;8734;59.272;17.780;2023-04-25T11:45:29;8.60;99.90
17236;DHT22;8734;59.272;17.780;2023-04-25T11:47:57;8.60;99.90
17236;DHT22;8734;59.272;17.780;2023-04-25T11:50:28;8.80;99.90
17236;DHT22;8734;59.272;17.780;2023-04-25T11:52:57;8.80;99.90
17236;DHT22;8734;59.272;17.780;2023-04-25T11:55:30;8.90;99.90
17236;DHT22;8734;59.272;17.780;2023-04-25T11:58:00;9.00;99.90
17236;DHT22;8734;59.272;17.780;2023-04-25T12:00:29;9.10;99.90
17236;DHT22;8734;59.272;17.780;2023-04-25T12:02:57;8.90;99.90
17236;DHT22;8734;59.272;17.780;2023-04-25T12:05:29;8.80;99.90
17236;DHT22;8734;59.272;17.780;2023-04-25T12:08:10;8.80;99.90
17236;DHT22;8734;59.272;17.780;2023-04-25T12:10:43;8.90;99.90
17236;DHT22;8734;59.272;17.780;2023-04-25T12:13:20;9.00;99.90
17236;DHT22;8734;59.272;17.780;2023-04-25T12:15:49;9.10;99.90
17236;DHT22;8734;59.272;17.780;2023-04-25T12:18:19;9.00;99.90
17236;DHT22;8734;59.272;17.780;2023-04-25T12:20:48;9.00;99.90
17236;DHT22;8734;59.272;17.780;2023-04-25T12:23:25;9.00;99.90
17236;DHT22;8734;59.272;17.780;2023-04-25T12:25:55;9.10;99.90
17236;DHT22;8734;59.272;17.780;2023-04-25T12:28:26;9.10;99.90
17236;DHT22;8734;59.272;17.780;2023-04-25T12:30:59;9.30;99.90
17236;DHT22;8734;59.272;17.780;2023-04-25T12:33:30;9.40;99.90
17236;DHT22;8734;59.272;17.780;2023-04-25T12:35:59;9.40;99.90
17236;DHT22;8734;59.272;17.780;2023-04-25T12:38:36;9.50;99.90
17236;DHT22;8734;59.272;17.780;2023-04-25T12:41:06;9.60;99.90
17236;DHT22;8734;59.272;17.780;2023-04-25T12:43:34;9.70;99.90
17236;DHT22;8734;59.272;17.780;2023-04-25T12:46:03;9.70;99.90
17236;DHT22;8734;59.272;17.780;2023-04-25T12:48:31;9.60;99.90
17236;DHT22;8734;59.272;17.780;2023-04-25T12:51:00;9.60;99.90
17236;DHT22;8734;59.272;17.780;2023-04-25T12:53:28;9.70;99.90
17236;DHT22;8734;59.272;17.780;2023-04-25T12:55:56;9.80;99.90
17236;DHT22;8734;59.272;17.780;2023-04-25T12:58:26;9.80;99.90
17236;DHT22;8734;59.272;17.780;2023-04-25T13:00:55;9.80;99.90
17236;DHT22;8734;59.272;17.780;2023-04-25T13:03:23;9.90;99.90
17236;DHT22;8734;59.272;17.780;2023-04-25T13:05:53;9.90;99.90
17236;DHT22;8734;59.272;17.780;2023-04-25T13:08:21;10.00;99.90
17236;DHT22;8734;59.272;17.780;2023-04-25T13:10:50;10.10;99.90
17236;DHT22;8734;59.272;17.780;2023-04-25T13:13:18;10.20;99.90
17236;DHT22;8734;59.272;17.780;2023-04-25T13:15:48;10.40;99.90
17236;DHT22;8734;59.272;17.780;2023-04-25T13:18:16;10.50;99.90
17236;DHT22;8734;59.272;17.780;2023-04-25T13:20:45;10.50;99.90
17236;DHT22;8734;59.272;17.780;2023-04-25T13:23:14;10.50;99.90
17236;DHT22;8734;59.272;17.780;2023-04-25T13:25:42;10.50;99.90
17236;DHT22;8734;59.272;17.780;2023-04-25T13:28:10;10.50;99.90
17236;DHT22;8734;59.272;17.780;2023-04-25T13:30:38;10.40;99.90
17236;DHT22;8734;59.272;17.780;2023-04-25T13:33:08;10.40;99.90
17236;DHT22;8734;59.272;17.780;2023-04-25T13:35:37;10.30;99.90
17236;DHT22;8734;59.272;17.780;2023-04-25T13:38:05;10.30;99.90
17236;DHT22;8734;59.272;17.780;2023-04-25T13:40:34;10.50;99.90
17236;DHT22;8734;59.272;17.780;2023-04-25T13:43:03;10.70;99.90
17236;DHT22;8734;59.272;17.780;2023-04-25T13:45:33;10.80;99.90
17236;DHT22;8734;59.272;17.780;2023-04-25T13:48:01;10.80;99.90
17236;DHT22;8734;59.272;17.780;2023-04-25T13:50:31;10.90;99.90
17236;DHT22;8734;59.272;17.780;2023-04-25T13:52:59;10.80;99.90
17236;DHT22;8734;59.272;17.780;2023-04-25T13:55:27;11.00;99.90
17236;DHT22;8734;59.272;17.780;2023-04-25T13:57:57;11.30;99.90
17236;DHT22;8734;59.272;17.780;2023-04-25T14:00:26;11.40;99.90
17236;DHT22;8734;59.272;17.780;2023-04-25T14:02:54;11.40;99.90
17236;DHT22;8734;59.272;17.780;2023-04-25T14:05:23;11.20;99.90
17236;DHT22;8734;59.272;17.780;2023-04-25T14:07:52;11.10;99.90
17236;DHT22;8734;59.272;17.780;2023-04-25T14:10:21;11.10;99.90
17236;DHT22;8734;59.272;17.780;2023-04-25T14:12:49;11.20;99.90
17236;DHT22;8734;59.272;17.780;2023-04-25T14:15:18;11.20;99.90
17236;DHT22;8734;59.272;17.780;2023-04-25T14:17:46;11.20;99.90
17236;DHT22;8734;59.272;17.780;2023-04-25T14:20:15;11.10;99.90
17236;DHT22;8734;59.272;17.780;2023-04-25T14:22:47;11.20;99.90
17236;DHT22;8734;59.272;17.780;2023-04-25T14:25:16;11.30;99.90
17236;DHT22;8734;59.272;17.780;2023-04-25T14:27:45;11.20;99.90
17236;DHT22;8734;59.272;17.780;2023-04-25T14:30:17;11.20;99.90
17236;DHT22;8734;59.272;17.780;2023-04-25T14:32:46;11.00;99.90
17236;DHT22;8734;59.272;17.780;2023-04-25T14:35:14;11.00;99.90
17236;DHT22;8734;59.272;17.780;2023-04-25T14:37:43;11.00;99.90
17236;DHT22;8734;59.272;17.780;2023-04-25T14:40:11;11.00;99.90
17236;DHT22;8734;59.272;17.780;2023-04-25T14:42:43;11.00;99.90
17236;DHT22;8734;59.272;17.780;2023-04-25T14:45:12;10.90;99.90
17236;DHT22;8734;59.272;17.780;2023-04-25T14:47:40;10.80;99.90
17236;DHT22;8734;59.272;17.780;2023-04-25T14:50:10;10.60;99.90
17236;DHT22;8734;59.272;17.780;2023-04-25T14:52:39;10.50;99.90
17236;DHT22;8734;59.272;17.780;2023-04-25T14:55:08;10.40;99.90
17236;DHT22;8734;59.272;17.780;2023-04-25T14:57:36;10.40;99.90
17236;DHT22;8734;59.272;17.780;2023-04-25T15:00:08;10.40;99.90
17236;DHT22;8734;59.272;17.780;2023-04-25T15:02:38;10.30;99.90
17236;DHT22;8734;59.272;17.780;2023-04-25T15:05:07;9.90;99.90
17236;DHT22;8734;59.272;17.780;2023-04-25T15:07:37;9.60;99.90
17236;DHT22;8734;59.272;17.780;2023-04-25T15:10:07;9.60;99.90
17236;DHT22;8734;59.272;17.780;2023-04-25T15:12:40;9.40;99.90
17236;DHT22;8734;59.272;17.780;2023-04-25T15:15:10;9.30;99.90
17236;DHT22;8734;59.272;17.780;2023-04-25T15:17:51;9.10;99.90
17236;DHT22;8734;59.272;17.780;2023-04-25T15:20:24;8.90;99.90
17236;DHT22;8734;59.272;17.780;2023-04-25T15:22:52;8.80;99.90
17236;DHT22;8734;59.272;17.780;2023-04-25T15:25:21;8.80;99.90
17236;DHT22;8734;59.272;17.780;2023-04-25T15:27:49;8.80;99.90
17236;DHT22;8734;59.272;17.780;2023-04-25T15:30:20;8.70;99.90
17236;DHT22;8734;59.272;17.780;2023-04-25T15:32:48;8.60;99.90
17236;DHT22;8734;59.272;17.780;2023-04-25T15:35:16;8.50;99.90
17236;DHT22;8734;59.272;17.780;2023-04-25T15:37:45;8.30;99.90
17236;DHT22;8734;59.272;17.780;2023-04-25T15:40:15;8.30;99.90
17236;DHT22;8734;59.272;17.780;2023-04-25T15:42:44;8.40;99.90
17236;DHT22;8734;59.272;17.780;2023-04-25T15:45:14;8.50;99.90
17236;DHT22;8734;59.272;17.780;2023-04-25T15:47:45;8.50;99.90
17236;DHT22;8734;59.272;17.780;2023-04-25T15:50:14;8.50;99.90
17236;DHT22;8734;59.272;17.780;2023-04-25T15:52:42;8.50;99.90
17236;DHT22;8734;59.272;17.780;2023-04-25T15:55:11;8.50;99.90
17236;DHT22;8734;59.272;17.780;2023-04-25T15:57:40;8.50;99.90
17236;DHT22;8734;59.272;17.780;2023-04-25T16:00:09;8.50;99.90